createdAt,value
2018-03-02T00:02:21.372Z,33.63
2018-03-02T00:04:50.698Z,34.00
2018-03-02T00:07:19.964Z,34.90
2018-03-02T00:09:49.335Z,35.78
2018-03-02T00:12:18.773Z,35.67
2018-03-02T00:14:48.238Z,35.15
2018-03-02T00:17:17.269Z,35.72
2018-03-02T00:19:46.625Z,37.33
2018-03-02T00:22:16.108Z,35.92
2018-03-02T00:24:45.541Z,35.90
2018-03-02T00:27:14.714Z,37.35
2018-03-02T00:29:44.291Z,35.20
2018-03-02T00:32:13.474Z,36.95
2018-03-02T00:34:42.927Z,38.15
2018-03-02T00:37:12.758Z,35.55
2018-03-02T00:39:42.305Z,36.72
2018-03-02T00:42:11.473Z,33.95
2018-03-02T00:44:41.219Z,37.10
2018-03-02T00:47:10.310Z,37.03
2018-03-02T00:49:39.813Z,37.58
2018-03-02T00:52:09.245Z,36.25
2018-03-02T00:54:38.471Z,38.17
2018-03-02T00:57:08.062Z,38.85
2018-03-02T00:59:37.431Z,42.22
2018-03-02T01:02:07.033Z,41.20
2018-03-02T01:04:36.329Z,42.97
2018-03-02T01:07:05.533Z,43.22
2018-03-02T01:09:35.218Z,44.10
2018-03-02T01:12:04.729Z,43.92
2018-03-02T01:14:34.051Z,44.75
2018-03-02T01:17:03.262Z,44.63
2018-03-02T01:19:32.537Z,45.08
2018-03-02T01:22:02.159Z,46.50
2018-03-02T01:24:32.174Z,46.47
2018-03-02T01:27:01.706Z,38.03
2018-03-02T01:29:30.889Z,39.45
2018-03-02T01:32:00.178Z,34.92
2018-03-02T01:34:29.595Z,28.75
2018-03-02T01:36:59.438Z,26.60
2018-03-02T01:39:28.618Z,26.45
2018-03-02T01:41:58.085Z,27.85
2018-03-02T01:44:27.570Z,35.47
2018-03-02T01:46:57.053Z,36.53
2018-03-02T01:49:26.806Z,40.70
2018-03-02T01:51:55.902Z,41.45
2018-03-02T01:54:25.081Z,39.45
2018-03-02T01:56:54.321Z,36.90
2018-03-02T01:59:23.708Z,34.72
2018-03-02T02:01:52.801Z,35.53
2018-03-02T02:04:22.215Z,39.10
2018-03-02T02:06:51.542Z,40.33
2018-03-02T02:09:20.706Z,41.30
2018-03-02T02:11:50.113Z,42.23
2018-03-02T02:14:19.511Z,44.55
2018-03-02T02:16:48.718Z,50.92
2018-03-02T02:19:17.797Z,54.33
2018-03-02T02:21:47.310Z,57.03
2018-03-02T02:24:16.453Z,60.40
2018-03-02T02:26:45.697Z,62.03
2018-03-02T02:29:14.997Z,65.62
2018-03-02T02:31:44.619Z,71.43
2018-03-02T02:34:13.979Z,74.07
2018-03-02T02:36:43.314Z,70.18
2018-03-02T02:39:12.994Z,68.12
2018-03-02T02:41:42.221Z,68.12
2018-03-02T02:44:11.474Z,63.95
2018-03-02T02:46:40.898Z,61.53
2018-03-02T02:49:10.057Z,60.28
2018-03-02T02:51:39.644Z,63.08
2018-03-02T02:54:08.907Z,60.92
2018-03-02T02:56:38.117Z,64.43
2018-03-02T02:59:07.525Z,63.83
2018-03-02T03:01:36.720Z,59.83
2018-03-02T03:04:06.141Z,59.28
2018-03-02T03:06:35.425Z,57.40
2018-03-02T03:09:04.893Z,59.13
2018-03-02T03:11:34.139Z,59.28
2018-03-02T03:14:03.769Z,53.40
2018-03-02T03:16:33.177Z,55.63
2018-03-02T03:19:02.397Z,59.30
2018-03-02T03:21:31.941Z,56.97
2018-03-02T03:24:01.244Z,54.95
2018-03-02T03:26:31.059Z,57.17
2018-03-02T03:29:00.455Z,56.70
2018-03-02T03:31:29.962Z,54.13
2018-03-02T03:33:59.509Z,56.45
2018-03-02T03:36:28.787Z,53.70
2018-03-02T03:38:58.169Z,49.55
2018-03-02T03:41:27.483Z,49.97
2018-03-02T03:43:57.284Z,50.65
2018-03-02T03:46:26.449Z,52.30
2018-03-02T03:48:55.777Z,53.35
2018-03-02T03:51:25.089Z,54.35
2018-03-02T03:53:54.382Z,55.78
2018-03-02T03:56:23.799Z,55.08
2018-03-02T03:58:53.439Z,60.97
2018-03-02T04:01:22.893Z,55.12
2018-03-02T04:03:52.305Z,59.17
2018-03-02T04:06:21.534Z,56.10
2018-03-02T04:08:50.904Z,57.42
2018-03-02T04:11:20.174Z,52.45
2018-03-02T04:13:49.411Z,56.08
2018-03-02T04:16:18.611Z,53.50
2018-03-02T04:18:47.922Z,52.00
2018-03-02T04:21:18.625Z,51.58
2018-03-02T04:23:48.073Z,49.33
2018-03-02T04:26:17.532Z,47.97
2018-03-02T04:28:46.947Z,52.38
2018-03-02T04:31:16.434Z,51.78
2018-03-02T04:33:45.611Z,52.38
2018-03-02T04:36:15.041Z,55.30
2018-03-02T04:38:44.649Z,56.45
2018-03-02T04:41:13.807Z,66.60
2018-03-02T04:43:43.046Z,62.45
2018-03-02T04:46:12.185Z,56.50
2018-03-02T04:48:41.455Z,55.30
2018-03-02T04:51:10.465Z,56.65
2018-03-02T04:53:39.837Z,55.00
2018-03-02T04:56:09.292Z,55.28
2018-03-02T04:58:38.710Z,54.95
2018-03-02T05:01:07.945Z,53.35
2018-03-02T05:03:37.469Z,52.05
2018-03-02T05:06:07.053Z,51.92
2018-03-02T05:08:36.457Z,52.88
2018-03-02T05:11:05.801Z,55.83
2018-03-02T05:13:35.121Z,56.30
2018-03-02T05:16:04.249Z,53.53
2018-03-02T05:18:33.441Z,51.75
2018-03-02T05:21:02.977Z,51.72
2018-03-02T05:23:32.257Z,57.47
2018-03-02T05:26:01.662Z,56.05
2018-03-02T05:28:30.864Z,57.90
2018-03-02T05:31:00.275Z,55.63
2018-03-02T05:33:29.577Z,57.50
2018-03-02T05:35:58.774Z,52.95
2018-03-02T05:38:28.005Z,54.97
2018-03-02T05:40:57.277Z,53.75
2018-03-02T05:43:26.731Z,60.92
2018-03-02T05:45:56.158Z,61.47
2018-03-02T05:48:25.882Z,60.67
2018-03-02T05:50:55.017Z,59.22
2018-03-02T05:53:24.381Z,55.38
2018-03-02T05:55:53.991Z,60.80
2018-03-02T05:58:23.161Z,56.95
2018-03-02T06:00:52.309Z,58.97
2018-03-02T06:03:21.570Z,60.90
2018-03-02T06:05:50.881Z,65.03
2018-03-02T06:08:20.517Z,70.07
2018-03-02T06:10:49.797Z,78.35
2018-03-02T06:13:19.159Z,84.15
2018-03-02T06:15:48.322Z,86.47
2018-03-02T06:18:17.689Z,95.07
2018-03-02T06:20:47.044Z,98.70
2018-03-02T06:23:16.325Z,99.97
2018-03-02T06:25:45.381Z,73.82
2018-03-02T06:28:14.353Z,83.35
2018-03-02T06:30:43.498Z,76.87
2018-03-02T06:33:12.850Z,70.00
2018-03-02T06:35:42.029Z,56.13
2018-03-02T06:38:11.430Z,51.65
2018-03-02T06:40:40.611Z,49.30
2018-03-02T06:43:09.874Z,45.05
2018-03-02T06:45:39.274Z,45.20
2018-03-02T06:48:08.688Z,57.90
2018-03-02T06:50:37.870Z,52.08
2018-03-02T06:53:06.853Z,48.63
2018-03-02T06:55:36.016Z,43.75
2018-03-02T06:58:05.814Z,42.65
2018-03-02T07:00:35.163Z,43.80
2018-03-02T07:03:04.241Z,46.88
2018-03-02T07:05:33.582Z,46.63
2018-03-02T07:08:02.846Z,48.72
2018-03-02T07:10:31.923Z,46.50
2018-03-02T07:13:01.255Z,46.13
2018-03-02T07:15:30.669Z,46.17
2018-03-02T07:17:59.974Z,52.67
2018-03-02T07:20:29.213Z,49.17
2018-03-02T07:22:58.301Z,47.08
2018-03-02T07:25:27.283Z,46.97
2018-03-02T07:27:56.493Z,43.05
2018-03-02T07:30:25.875Z,41.90
2018-03-02T07:32:55.007Z,45.33
2018-03-02T07:35:24.166Z,42.60
2018-03-02T07:37:53.512Z,45.17
2018-03-02T07:40:22.774Z,47.55
2018-03-02T07:42:51.894Z,45.65
2018-03-02T07:45:21.155Z,44.03
2018-03-02T07:47:50.478Z,39.67
2018-03-02T07:50:19.741Z,42.00
2018-03-02T07:52:48.839Z,41.63
2018-03-02T07:55:18.426Z,42.55
2018-03-02T07:57:47.669Z,43.45
2018-03-02T08:00:16.972Z,40.30
2018-03-02T08:02:46.462Z,42.45
2018-03-02T08:05:15.986Z,42.22
2018-03-02T08:07:45.499Z,41.15
2018-03-02T08:10:14.855Z,40.67
2018-03-02T08:12:44.197Z,37.80
2018-03-02T08:15:13.290Z,42.05
2018-03-02T08:17:42.560Z,40.55
2018-03-02T08:20:12.291Z,40.35
2018-03-02T08:22:41.402Z,38.20
2018-03-02T08:25:10.434Z,40.42
2018-03-02T08:27:39.669Z,43.97
2018-03-02T08:30:09.138Z,44.97
2018-03-02T08:32:38.441Z,42.62
2018-03-02T08:35:07.481Z,46.63
2018-03-02T08:37:36.414Z,53.47
2018-03-02T08:40:05.673Z,58.72
2018-03-02T08:42:35.042Z,64.25
2018-03-02T08:45:04.334Z,65.10
2018-03-02T08:47:33.477Z,62.08
2018-03-02T08:50:02.721Z,61.78
2018-03-02T08:52:32.048Z,55.17
2018-03-02T08:55:01.371Z,56.55
2018-03-02T08:57:30.477Z,58.15
2018-03-02T08:59:59.893Z,59.58
2018-03-02T09:02:28.867Z,62.03
2018-03-02T09:04:57.954Z,63.67
2018-03-02T09:07:27.200Z,66.87
2018-03-02T09:09:56.337Z,59.75
2018-03-02T09:12:25.581Z,64.62
2018-03-02T09:14:55.082Z,65.62
2018-03-02T09:17:24.317Z,73.53
2018-03-02T09:19:53.705Z,71.05
2018-03-02T09:22:23.065Z,71.12
2018-03-02T09:24:52.345Z,66.30
2018-03-02T09:27:21.823Z,67.65
2018-03-02T09:29:50.985Z,71.45
2018-03-02T09:32:20.001Z,60.20
2018-03-02T09:34:49.365Z,54.58
2018-03-02T09:37:18.670Z,56.65
2018-03-02T09:39:47.894Z,48.67
2018-03-02T09:42:17.167Z,51.88
2018-03-02T09:44:46.383Z,47.20
2018-03-02T09:47:15.581Z,45.60
2018-03-02T09:49:44.707Z,46.97
2018-03-02T09:52:14.098Z,48.30
2018-03-02T09:54:43.605Z,49.15
2018-03-02T09:57:12.846Z,44.45
2018-03-02T09:59:42.293Z,46.53
2018-03-02T10:02:11.554Z,47.72
2018-03-02T10:04:40.819Z,47.28
2018-03-02T10:07:10.217Z,56.95
2018-03-02T10:09:39.143Z,46.70
2018-03-02T10:12:08.810Z,44.55
2018-03-02T10:14:38.009Z,40.17
2018-03-02T10:17:07.165Z,39.10
2018-03-02T10:19:36.478Z,38.83
2018-03-02T10:22:05.642Z,47.72
2018-03-02T10:24:35.045Z,43.72
2018-03-02T10:27:04.513Z,46.35
2018-03-02T10:29:33.765Z,43.63
2018-03-02T10:32:03.138Z,46.85
2018-03-02T10:34:32.223Z,40.05
2018-03-02T10:37:01.767Z,42.22
2018-03-02T10:39:30.994Z,42.60
2018-03-02T10:42:00.267Z,42.30
2018-03-02T10:44:29.915Z,39.80
2018-03-02T10:46:59.262Z,38.70
2018-03-02T10:49:28.679Z,39.65
2018-03-02T10:51:58.170Z,37.47
2018-03-02T10:54:27.793Z,39.97
2018-03-02T10:56:57.233Z,39.90
2018-03-02T10:59:26.844Z,38.50
2018-03-02T11:01:56.037Z,38.15
2018-03-02T11:04:30.974Z,38.53
2018-03-02T11:07:00.331Z,41.58
2018-03-02T11:09:29.668Z,39.53
2018-03-02T11:11:58.868Z,42.55
2018-03-02T11:14:28.030Z,40.60
2018-03-02T11:16:57.436Z,40.10
2018-03-02T11:19:26.680Z,37.22
2018-03-02T11:21:56.171Z,43.78
2018-03-02T11:24:25.260Z,43.03
2018-03-02T11:26:54.622Z,47.17
2018-03-02T11:29:23.971Z,45.33
2018-03-02T11:31:53.417Z,43.22
2018-03-02T11:34:22.398Z,41.75
2018-03-02T11:36:51.717Z,46.33
2018-03-02T11:39:20.951Z,42.78
2018-03-02T11:41:49.941Z,45.22
2018-03-02T11:44:19.113Z,46.97
2018-03-02T11:46:48.369Z,45.92
2018-03-02T11:49:17.527Z,44.95
2018-03-02T11:51:46.953Z,42.58
2018-03-02T11:54:16.175Z,52.55
2018-03-02T11:56:45.269Z,46.65
2018-03-02T11:59:14.442Z,42.00
2018-03-02T12:01:43.837Z,46.67
2018-03-02T12:04:13.343Z,46.25
2018-03-02T12:06:42.713Z,51.03
2018-03-02T12:09:12.028Z,45.20
2018-03-02T12:11:41.371Z,45.63
2018-03-02T12:14:10.721Z,44.65
2018-03-02T12:16:40.017Z,47.13
2018-03-02T12:19:09.483Z,44.25
2018-03-02T12:21:38.993Z,46.03
2018-03-02T12:24:08.201Z,40.28
2018-03-02T12:26:37.931Z,44.47
2018-03-02T12:29:07.285Z,45.55
2018-03-02T12:31:36.701Z,40.83
2018-03-02T12:34:06.145Z,47.05
2018-03-02T12:36:35.359Z,43.03
2018-03-02T12:39:05.470Z,43.08
2018-03-02T12:41:34.702Z,43.83
2018-03-02T12:44:04.234Z,44.25
2018-03-02T12:46:33.408Z,47.85
2018-03-02T12:49:02.773Z,43.80
2018-03-02T12:51:32.039Z,43.13
2018-03-02T12:54:01.528Z,46.67
2018-03-02T12:56:30.709Z,43.50
2018-03-02T12:59:00.132Z,45.78
2018-03-02T13:01:29.685Z,45.88
2018-03-02T13:03:58.917Z,49.25
2018-03-02T13:06:28.185Z,46.88
2018-03-02T13:08:57.373Z,44.92
2018-03-02T13:11:26.746Z,46.40
2018-03-02T13:13:55.994Z,51.50
2018-03-02T13:16:25.220Z,50.90
2018-03-02T13:18:54.275Z,50.10
2018-03-02T13:21:23.911Z,51.42
2018-03-02T13:23:53.099Z,47.60
2018-03-02T13:26:33.690Z,48.80
2018-03-02T13:29:02.595Z,53.42
2018-03-02T13:31:31.948Z,53.53
2018-03-02T13:34:12.351Z,53.13
2018-03-02T13:36:41.105Z,50.60
2018-03-02T13:39:10.390Z,51.47
2018-03-02T13:41:51.086Z,52.40
2018-03-02T13:44:20.049Z,52.62
2018-03-02T13:46:49.629Z,55.70
2018-03-02T13:49:30.205Z,50.17
2018-03-02T13:51:59.368Z,54.80
2018-03-02T13:54:28.580Z,53.08
2018-03-02T13:57:09.126Z,63.20
2018-03-02T13:59:38.179Z,64.28
2018-03-02T14:02:07.379Z,63.87
2018-03-02T14:04:45.366Z,55.50
2018-03-02T14:07:14.700Z,58.05
2018-03-02T14:09:43.770Z,60.88
2018-03-02T14:12:13.088Z,64.45
2018-03-02T14:14:42.265Z,58.15
2018-03-02T14:17:11.655Z,56.50
2018-03-02T14:19:41.132Z,56.10
2018-03-02T14:22:10.434Z,56.78
2018-03-02T14:24:39.921Z,56.08
2018-03-02T14:27:08.997Z,54.75
2018-03-02T14:29:38.345Z,58.20
2018-03-02T14:32:07.965Z,58.92
2018-03-02T14:34:37.406Z,57.83
2018-03-02T14:37:06.725Z,69.40
2018-03-02T14:39:35.990Z,60.75
2018-03-02T14:42:05.094Z,60.53
2018-03-02T14:44:34.215Z,56.93
2018-03-02T14:47:03.869Z,56.88
2018-03-02T14:49:33.296Z,62.70
2018-03-02T14:52:02.743Z,73.15
2018-03-02T14:54:31.894Z,67.90
2018-03-02T14:57:01.281Z,68.20
2018-03-02T14:59:31.066Z,70.28
2018-03-02T15:02:00.274Z,74.20
2018-03-02T15:04:29.838Z,76.32
2018-03-02T15:06:59.362Z,71.72
2018-03-02T15:09:28.845Z,76.37
2018-03-02T15:11:58.111Z,75.15
2018-03-02T15:14:27.426Z,72.40
2018-03-02T15:16:56.879Z,74.53
2018-03-02T15:19:26.130Z,75.70
2018-03-02T15:21:55.502Z,75.05
2018-03-02T15:24:24.851Z,74.25
2018-03-02T15:26:54.247Z,83.85
2018-03-02T15:29:23.493Z,81.07
2018-03-02T15:31:52.847Z,87.12
2018-03-02T15:34:22.418Z,85.90
2018-03-02T15:36:51.779Z,88.85
2018-03-02T15:39:21.408Z,100.68
2018-03-02T15:41:50.811Z,121.28
2018-03-02T15:44:20.365Z,121.95
2018-03-02T15:46:50.133Z,133.45
2018-03-02T15:49:19.513Z,137.88
2018-03-02T15:51:49.057Z,137.65
2018-03-02T15:54:18.362Z,147.50
2018-03-02T15:56:48.038Z,150.95
2018-03-02T15:59:17.502Z,153.57
2018-03-02T16:01:46.993Z,154.98
2018-03-02T16:04:16.276Z,158.70
2018-03-02T16:06:45.474Z,142.75
2018-03-02T16:09:14.495Z,136.70
2018-03-02T16:11:43.630Z,127.53
2018-03-02T16:14:12.907Z,116.65
2018-03-02T16:16:42.318Z,109.50
2018-03-02T16:19:11.518Z,106.40
2018-03-02T16:21:40.808Z,101.90
2018-03-02T16:24:10.244Z,98.43
2018-03-02T16:26:39.441Z,92.97
2018-03-02T16:29:08.867Z,95.15
2018-03-02T16:31:38.058Z,92.93
2018-03-02T16:34:07.329Z,96.95
2018-03-02T16:36:36.349Z,95.20
2018-03-02T16:39:05.668Z,96.40
2018-03-02T16:41:34.770Z,103.32
2018-03-02T16:44:04.006Z,105.60
2018-03-02T16:46:33.201Z,108.75
2018-03-02T16:49:02.533Z,109.37
2018-03-02T16:51:32.579Z,102.40
2018-03-02T16:54:02.146Z,110.50
2018-03-02T16:56:31.225Z,105.65
2018-03-02T16:59:00.361Z,101.53
2018-03-02T17:01:29.438Z,102.28
2018-03-02T17:03:58.576Z,104.12
2018-03-02T17:06:27.930Z,109.15
2018-03-02T17:08:56.906Z,109.70
2018-03-02T17:11:26.229Z,117.20
2018-03-02T17:13:55.375Z,117.05
2018-03-02T17:16:24.492Z,107.22
2018-03-02T17:18:53.543Z,104.97
2018-03-02T17:21:22.705Z,101.82
2018-03-02T17:23:52.263Z,113.35
2018-03-02T17:26:21.515Z,113.53
2018-03-02T17:28:50.703Z,115.68
2018-03-02T17:31:20.307Z,106.40
2018-03-02T17:33:49.552Z,106.87
2018-03-02T17:36:18.563Z,106.10
2018-03-02T17:38:47.862Z,104.80
2018-03-02T17:41:16.854Z,116.80
2018-03-02T17:43:46.105Z,108.95
2018-03-02T17:46:15.259Z,122.80
2018-03-02T17:48:44.317Z,118.72
2018-03-02T17:51:13.555Z,113.12
2018-03-02T17:53:42.518Z,115.50
2018-03-02T17:56:12.043Z,112.10
2018-03-02T17:58:42.239Z,117.93
2018-03-02T18:01:11.509Z,113.30
2018-03-02T18:03:40.747Z,116.85
2018-03-02T18:06:10.046Z,120.60
2018-03-02T18:08:39.075Z,122.80
2018-03-02T18:11:08.254Z,128.55
2018-03-02T18:13:37.249Z,125.22
2018-03-02T18:16:06.725Z,124.95
2018-03-02T18:18:36.111Z,122.05
2018-03-02T18:21:05.425Z,121.62
2018-03-02T18:23:34.453Z,117.20
2018-03-02T18:26:03.401Z,114.35
2018-03-02T18:28:32.469Z,109.45
2018-03-02T18:31:01.863Z,108.90
2018-03-02T18:33:31.025Z,108.82
2018-03-02T18:36:00.361Z,108.40
2018-03-02T18:38:29.526Z,108.37
2018-03-02T18:40:58.944Z,123.75
2018-03-02T18:43:28.197Z,122.43
2018-03-02T18:45:57.173Z,126.35
2018-03-02T18:48:26.427Z,127.70
2018-03-02T18:50:56.039Z,134.20
2018-03-02T18:53:25.322Z,143.98
2018-03-02T18:55:54.528Z,138.55
2018-03-02T18:58:23.718Z,142.23
2018-03-02T19:00:52.955Z,152.87
2018-03-02T19:03:22.043Z,157.73
2018-03-02T19:05:51.069Z,144.13
2018-03-02T19:08:20.256Z,163.55
2018-03-02T19:10:49.486Z,163.65
2018-03-02T19:13:18.628Z,173.73
2018-03-02T19:15:47.917Z,175.57
2018-03-02T19:18:16.933Z,167.90
2018-03-02T19:20:46.057Z,170.05
2018-03-02T19:23:15.482Z,178.98
2018-03-02T19:25:44.516Z,186.57
2018-03-02T19:28:13.645Z,187.82
2018-03-02T19:30:43.028Z,167.07
2018-03-02T19:33:12.398Z,179.05
2018-03-02T19:35:41.911Z,175.50
2018-03-02T19:38:11.398Z,178.73
2018-03-02T19:40:40.687Z,165.30
2018-03-02T19:43:10.185Z,167.50
2018-03-02T19:45:39.641Z,159.45
2018-03-02T19:48:08.991Z,142.07
2018-03-02T19:50:38.304Z,126.07
2018-03-02T19:53:08.185Z,124.12
2018-03-02T19:55:37.586Z,121.75
2018-03-02T19:58:06.759Z,116.28
2018-03-02T20:00:35.946Z,119.18
2018-03-02T20:03:05.439Z,115.78
2018-03-02T20:05:34.877Z,118.47
2018-03-02T20:08:04.093Z,121.57
2018-03-02T20:10:33.201Z,121.97
2018-03-02T20:13:02.509Z,119.75
2018-03-02T20:15:31.796Z,121.32
2018-03-02T20:18:01.354Z,111.78
2018-03-02T20:20:30.671Z,112.55
2018-03-02T20:23:00.367Z,109.55
2018-03-02T20:25:29.358Z,101.53
2018-03-02T20:27:58.706Z,104.38
2018-03-02T20:30:28.249Z,103.30
2018-03-02T20:32:57.350Z,111.12
2018-03-02T20:35:26.749Z,112.43
2018-03-02T20:37:55.875Z,118.15
2018-03-02T20:40:25.013Z,134.40
2018-03-02T20:42:54.293Z,124.00
2018-03-02T20:45:23.425Z,128.38
2018-03-02T20:47:52.838Z,127.55
2018-03-02T20:50:22.311Z,120.93
2018-03-02T20:52:51.587Z,121.53
2018-03-02T20:55:20.741Z,126.72
2018-03-02T20:57:49.930Z,153.15
2018-03-02T21:00:19.138Z,143.30
2018-03-02T21:02:48.559Z,130.07
2018-03-02T21:05:18.009Z,130.85
2018-03-02T21:07:47.041Z,131.10
2018-03-02T21:10:16.310Z,125.32
2018-03-02T21:12:45.812Z,123.75
2018-03-02T21:15:14.873Z,131.77
2018-03-02T21:17:44.629Z,125.07
2018-03-02T21:20:13.745Z,119.78
2018-03-02T21:22:43.617Z,121.62
2018-03-02T21:25:12.917Z,123.43
2018-03-02T21:27:42.017Z,133.80
2018-03-02T21:30:11.257Z,142.90
2018-03-02T21:32:40.568Z,146.10
2018-03-02T21:35:09.923Z,143.27
2018-03-02T21:37:39.297Z,143.32
2018-03-02T21:40:13.519Z,139.70
2018-03-02T21:42:42.893Z,139.73
2018-03-02T21:45:12.113Z,151.45
2018-03-02T21:47:41.327Z,153.23
2018-03-02T21:50:10.593Z,151.52
2018-03-02T21:52:39.811Z,116.22
2018-03-02T21:55:08.995Z,117.18
2018-03-02T21:57:38.240Z,121.87
2018-03-02T22:00:17.939Z,123.05
2018-03-02T22:02:52.485Z,118.90
2018-03-02T22:05:21.413Z,119.80
2018-03-02T22:07:50.531Z,125.65
2018-03-02T22:10:19.781Z,126.67
2018-03-02T22:12:49.062Z,133.03
2018-03-02T22:15:18.270Z,135.50
2018-03-02T22:17:47.417Z,129.07
2018-03-02T22:20:16.949Z,134.40
2018-03-02T22:22:46.169Z,131.25
2018-03-02T22:25:15.435Z,128.55
2018-03-02T22:27:44.648Z,126.03
2018-03-02T22:30:13.838Z,126.68
2018-03-02T22:32:43.046Z,130.12
2018-03-02T22:35:12.276Z,137.55
2018-03-02T22:37:41.541Z,138.48
2018-03-02T22:40:10.917Z,136.93
2018-03-02T22:42:40.021Z,138.05
2018-03-02T22:45:09.437Z,138.12
2018-03-02T22:47:38.573Z,144.85
2018-03-02T22:50:08.072Z,132.30
2018-03-02T22:52:37.425Z,138.02
2018-03-02T22:55:07.035Z,138.18
2018-03-02T22:57:36.367Z,137.25
2018-03-02T23:00:05.786Z,130.80
2018-03-02T23:02:35.073Z,125.40
2018-03-02T23:05:04.347Z,123.53
2018-03-02T23:07:33.651Z,132.00
2018-03-02T23:10:02.769Z,127.40
2018-03-02T23:12:32.313Z,137.68
2018-03-02T23:15:01.692Z,124.15
2018-03-02T23:17:30.849Z,116.55
2018-03-02T23:20:00.018Z,110.57
2018-03-02T23:22:29.377Z,116.22
2018-03-02T23:24:58.637Z,111.37
2018-03-02T23:27:27.989Z,113.30
2018-03-02T23:29:57.073Z,122.75
2018-03-02T23:32:26.407Z,125.78
2018-03-02T23:34:55.625Z,118.82
2018-03-02T23:37:24.782Z,123.70
2018-03-02T23:39:53.965Z,120.75
2018-03-02T23:42:23.065Z,120.03
2018-03-02T23:44:52.385Z,120.75
2018-03-02T23:47:21.929Z,118.78
2018-03-02T23:49:51.052Z,120.15
2018-03-02T23:52:20.633Z,118.18
2018-03-02T23:54:50.037Z,126.28
2018-03-02T23:57:19.367Z,121.47
2018-03-02T23:59:48.745Z,115.93
